createdAt,value
2016-03-14T00:00:28.589Z,1027.9
2016-03-14T00:01:28.561Z,1027.86
2016-03-14T00:02:28.517Z,1027.88
2016-03-14T00:03:28.487Z,1027.89
2016-03-14T00:04:28.444Z,1027.81
2016-03-14T00:05:28.415Z,1027.8
2016-03-14T00:06:28.386Z,1027.72
2016-03-14T00:07:28.358Z,1027.78
2016-03-14T00:08:28.314Z,1027.76
2016-03-14T00:09:28.286Z,1027.78
2016-03-14T00:10:28.241Z,1027.72
2016-03-14T00:11:28.213Z,1027.75
2016-03-14T00:12:28.169Z,1027.77
2016-03-14T00:13:28.139Z,1027.74
2016-03-14T00:14:28.111Z,1027.82
2016-03-14T00:15:28.067Z,1027.76
2016-03-14T00:16:28.022Z,1027.74
2016-03-14T00:17:27.995Z,1027.81
2016-03-14T00:18:27.966Z,1027.83
2016-03-14T00:19:27.938Z,1027.75
2016-03-14T00:20:27.893Z,1027.82
2016-03-14T00:21:27.849Z,1027.8
2016-03-14T00:22:27.835Z,1027.81
2016-03-14T00:23:27.791Z,1027.82
2016-03-14T00:24:27.748Z,1027.81
2016-03-14T00:25:27.718Z,1027.83
2016-03-14T00:26:27.690Z,1027.85
2016-03-14T00:27:27.646Z,1027.84
2016-03-14T00:28:27.618Z,1027.88
2016-03-14T00:29:27.573Z,1027.82
2016-03-14T00:30:27.545Z,1027.84
2016-03-14T00:31:27.501Z,1027.81
2016-03-14T00:32:27.472Z,1027.84
2016-03-14T00:33:27.428Z,1027.79
2016-03-14T00:34:27.400Z,1027.79
2016-03-14T00:35:27.370Z,1027.73
2016-03-14T00:36:27.343Z,1027.79
2016-03-14T00:37:27.329Z,1027.75
2016-03-14T00:38:27.254Z,1027.76
2016-03-14T00:39:27.225Z,1027.74
2016-03-14T00:40:27.197Z,1027.7
2016-03-14T00:41:27.152Z,1027.72
2016-03-14T00:42:27.124Z,1027.63
2016-03-14T00:43:27.080Z,1027.74
2016-03-14T00:44:27.052Z,1027.72
2016-03-14T00:45:27.007Z,1027.72
2016-03-14T00:46:26.978Z,1027.75
2016-03-14T00:47:26.950Z,1027.74
2016-03-14T00:48:26.905Z,1027.65
2016-03-14T00:49:26.877Z,1027.76
2016-03-14T00:50:26.849Z,1027.73
2016-03-14T00:51:26.804Z,1027.75
2016-03-14T00:52:26.760Z,1027.77
2016-03-14T00:53:26.732Z,1027.78
2016-03-14T00:54:26.687Z,1027.77
2016-03-14T00:55:26.659Z,1027.76
2016-03-14T00:56:26.630Z,1027.83
2016-03-14T00:57:26.587Z,1027.83
2016-03-14T00:58:26.561Z,1027.76
2016-03-14T00:59:26.514Z,1027.87
2016-03-14T01:00:26.486Z,1027.81
2016-03-14T01:01:26.484Z,1027.87
2016-03-14T01:02:26.422Z,1027.87
2016-03-14T01:03:26.378Z,1027.77
2016-03-14T01:04:26.349Z,1027.85
2016-03-14T01:05:26.305Z,1027.82
2016-03-14T01:06:26.277Z,1027.8
2016-03-14T01:07:26.232Z,1027.86
2016-03-14T01:08:26.204Z,1027.78
2016-03-14T01:09:26.175Z,1027.78
2016-03-14T01:10:26.131Z,1027.8
2016-03-14T01:11:26.102Z,1027.77
2016-03-14T01:12:26.058Z,1027.78
2016-03-14T01:13:26.030Z,1027.75
2016-03-14T01:14:25.985Z,1027.76
2016-03-14T01:15:25.957Z,1027.77
2016-03-14T01:16:25.928Z,1027.75
2016-03-14T01:17:25.884Z,1027.75
2016-03-14T01:18:25.856Z,1027.78
2016-03-14T01:19:25.812Z,1027.73
2016-03-14T01:20:25.782Z,1027.77
2016-03-14T01:21:25.754Z,1027.74
2016-03-14T01:22:25.710Z,1027.73
2016-03-14T01:23:25.681Z,1027.71
2016-03-14T01:24:25.637Z,1027.69
2016-03-14T01:25:25.609Z,1027.65
2016-03-14T01:26:25.564Z,1027.64
2016-03-14T01:27:25.536Z,1027.66
2016-03-14T01:28:25.507Z,1027.61
2016-03-14T01:29:25.464Z,1027.63
2016-03-14T01:30:25.435Z,1027.64
2016-03-14T01:31:25.390Z,1027.62
2016-03-14T01:32:25.378Z,1027.63
2016-03-14T01:33:25.317Z,1027.63
2016-03-14T01:34:25.289Z,1027.59
2016-03-14T01:35:25.261Z,1027.61
2016-03-14T01:36:25.216Z,1027.59
2016-03-14T01:37:25.188Z,1027.6
2016-03-14T01:38:25.144Z,1027.58
2016-03-14T01:39:25.116Z,1027.55
2016-03-14T01:40:25.086Z,1027.58
2016-03-14T01:41:25.042Z,1027.52
2016-03-14T01:42:24.999Z,1027.52
2016-03-14T01:43:24.969Z,1027.51
2016-03-14T01:44:24.941Z,1027.51
2016-03-14T01:45:24.897Z,1027.49
2016-03-14T01:46:24.868Z,1027.48
2016-03-14T01:47:24.824Z,1027.5
2016-03-14T01:48:24.796Z,1027.51
2016-03-14T01:49:24.767Z,1027.5
2016-03-14T01:50:24.723Z,1027.47
2016-03-14T01:51:24.694Z,1027.49
2016-03-14T01:52:24.650Z,1027.5
2016-03-14T01:53:24.621Z,1027.51
2016-03-14T01:54:24.576Z,1027.49
2016-03-14T01:55:24.549Z,1027.52
2016-03-14T01:56:24.504Z,1027.57
2016-03-14T01:57:24.476Z,1027.52
2016-03-14T01:58:24.448Z,1027.53
2016-03-14T01:59:24.403Z,1027.53
2016-03-14T02:00:24.375Z,1027.5
2016-03-14T02:01:24.331Z,1027.48
2016-03-14T02:02:24.302Z,1027.48
2016-03-14T02:03:24.258Z,1027.45
2016-03-14T02:04:24.229Z,1027.43
2016-03-14T02:05:24.201Z,1027.43
2016-03-14T02:06:24.156Z,1027.46
2016-03-14T02:07:24.128Z,1027.46
2016-03-14T02:08:24.084Z,1027.48
2016-03-14T02:09:24.055Z,1027.44
2016-03-14T02:10:24.011Z,1027.43
2016-03-14T02:11:23.983Z,1027.39
2016-03-14T02:12:23.954Z,1027.39
2016-03-14T02:13:23.910Z,1027.39
2016-03-14T02:14:23.881Z,1027.32
2016-03-14T02:15:23.837Z,1027.32
2016-03-14T02:16:23.808Z,1027.34
2016-03-14T02:17:23.764Z,1027.31
2016-03-14T02:18:23.735Z,1027.33
2016-03-14T02:19:23.691Z,1027.34
2016-03-14T02:20:23.663Z,1027.34
2016-03-14T02:21:23.634Z,1027.36
2016-03-14T02:22:23.606Z,1027.39
2016-03-14T02:23:23.561Z,1027.37
2016-03-14T02:24:23.518Z,1027.38
2016-03-14T02:25:23.489Z,1027.33
2016-03-14T02:26:23.445Z,1027.29
2016-03-14T02:27:23.416Z,1027.31
2016-03-14T02:28:23.387Z,1027.32
2016-03-14T02:29:23.343Z,1027.33
2016-03-14T02:30:23.315Z,1027.29
2016-03-14T02:31:23.270Z,1027.31
2016-03-14T02:32:23.242Z,1027.27
2016-03-14T02:33:23.197Z,1027.24
2016-03-14T02:34:23.170Z,1027.2
2016-03-14T02:35:23.125Z,1027.2
2016-03-14T02:36:23.097Z,1027.17
2016-03-14T02:37:23.068Z,1027.18
2016-03-14T02:38:23.039Z,1027.15
2016-03-14T02:39:22.995Z,1027.17
2016-03-14T02:40:22.951Z,1027.19
2016-03-14T02:41:22.922Z,1027.22
2016-03-14T02:42:22.877Z,1027.22
2016-03-14T02:43:22.850Z,1027.19
2016-03-14T02:44:22.821Z,1027.26
2016-03-14T02:45:22.777Z,1027.25
2016-03-14T02:46:22.749Z,1027.24
2016-03-14T02:47:22.704Z,1027.27
2016-03-14T02:48:22.668Z,1027.28
2016-03-14T02:49:22.612Z,1027.28
2016-03-14T02:50:22.569Z,1027.2
2016-03-14T02:51:22.513Z,1027.28
2016-03-14T02:52:22.488Z,1027.26
2016-03-14T02:53:22.419Z,1027.24
2016-03-14T02:54:22.387Z,1027.2
2016-03-14T02:55:22.337Z,1027.22
2016-03-14T02:56:22.305Z,1027.22
2016-03-14T02:57:22.256Z,1027.19
2016-03-14T02:58:22.224Z,1027.23
2016-03-14T02:59:22.194Z,1027.24
2016-03-14T03:00:22.149Z,1027.25
2016-03-14T03:01:22.103Z,1027.28
2016-03-14T03:02:22.073Z,1027.27
2016-03-14T03:03:22.028Z,1027.32
2016-03-14T03:04:21.999Z,1027.28
2016-03-14T03:05:21.953Z,1027.38
2016-03-14T03:06:21.923Z,1027.33
2016-03-14T03:07:21.895Z,1027.37
2016-03-14T03:08:21.850Z,1027.39
2016-03-14T03:09:21.806Z,1027.42
2016-03-14T03:10:21.777Z,1027.39
2016-03-14T03:11:21.749Z,1027.43
2016-03-14T03:12:21.704Z,1027.38
2016-03-14T03:13:21.661Z,1027.4
2016-03-14T03:14:21.632Z,1027.33
2016-03-14T03:15:21.588Z,1027.34
2016-03-14T03:16:21.559Z,1027.38
2016-03-14T03:17:21.516Z,1027.35
2016-03-14T03:18:21.487Z,1027.35
2016-03-14T03:19:21.443Z,1027.36
2016-03-14T03:20:21.414Z,1027.34
2016-03-14T03:21:21.385Z,1027.43
2016-03-14T03:22:21.340Z,1027.44
2016-03-14T03:23:21.297Z,1027.41
2016-03-14T03:24:21.268Z,1027.44
2016-03-14T03:25:21.240Z,1027.42
2016-03-14T03:26:21.195Z,1027.45
2016-03-14T03:27:21.167Z,1027.39
2016-03-14T03:28:21.122Z,1027.36
2016-03-14T03:29:21.078Z,1027.4
2016-03-14T03:30:21.050Z,1027.32
2016-03-14T03:31:21.006Z,1027.33
2016-03-14T03:32:20.978Z,1027.38
2016-03-14T03:33:20.933Z,1027.35
2016-03-14T03:34:20.905Z,1027.38
2016-03-14T03:35:20.861Z,1027.33
2016-03-14T03:36:20.833Z,1027.35
2016-03-14T03:37:20.788Z,1027.27
2016-03-14T03:38:20.759Z,1027.24
2016-03-14T03:39:20.715Z,1027.27
2016-03-14T03:40:20.702Z,1027.26
2016-03-14T03:41:20.642Z,1027.27
2016-03-14T03:42:20.614Z,1027.28
2016-03-14T03:43:20.569Z,1027.26
2016-03-14T03:44:20.541Z,1027.24
2016-03-14T03:45:20.496Z,1027.28
2016-03-14T03:46:20.468Z,1027.17
2016-03-14T03:47:20.423Z,1027.24
2016-03-14T03:48:20.396Z,1027.26
2016-03-14T03:49:20.351Z,1027.2
2016-03-14T03:50:20.323Z,1027.17
2016-03-14T03:51:20.278Z,1027.16
2016-03-14T03:52:20.251Z,1027.15
2016-03-14T03:53:20.206Z,1027.17
2016-03-14T03:54:20.177Z,1027.25
2016-03-14T03:55:20.179Z,1027.22
2016-03-14T03:56:20.089Z,1027.23
2016-03-14T03:57:20.059Z,1027.22
2016-03-14T03:58:20.016Z,1027.18
2016-03-14T03:59:19.987Z,1027.19
2016-03-14T04:00:19.943Z,1027.24
2016-03-14T04:01:19.930Z,1027.28
2016-03-14T04:02:19.870Z,1027.27
2016-03-14T04:03:19.841Z,1027.24
2016-03-14T04:04:19.797Z,1027.23
2016-03-14T04:05:19.769Z,1027.19
2016-03-14T04:06:19.725Z,1027.27
2016-03-14T04:07:19.696Z,1027.23
2016-03-14T04:08:19.652Z,1027.23
2016-03-14T04:09:19.624Z,1027.23
2016-03-14T04:10:19.580Z,1027.25
2016-03-14T04:11:19.552Z,1027.23
2016-03-14T04:12:19.507Z,1027.24
2016-03-14T04:13:19.477Z,1027.2
2016-03-14T04:14:19.434Z,1027.24
2016-03-14T04:15:19.390Z,1027.22
2016-03-14T04:16:19.361Z,1027.27
2016-03-14T04:17:19.318Z,1027.29
2016-03-14T04:18:19.289Z,1027.3
2016-03-14T04:19:19.243Z,1027.25
2016-03-14T04:20:19.215Z,1027.28
2016-03-14T04:21:19.171Z,1027.27
2016-03-14T04:22:19.143Z,1027.26
2016-03-14T04:23:19.115Z,1027.3
2016-03-14T04:24:19.071Z,1027.25
2016-03-14T04:25:19.026Z,1027.29
2016-03-14T04:26:18.998Z,1027.29
2016-03-14T04:27:18.954Z,1027.21
2016-03-14T04:28:18.926Z,1027.25
2016-03-14T04:29:18.881Z,1027.26
2016-03-14T04:30:18.853Z,1027.27
2016-03-14T04:31:18.808Z,1027.26
2016-03-14T04:32:18.779Z,1027.3
2016-03-14T04:33:18.736Z,1027.25
2016-03-14T04:34:18.707Z,1027.26
2016-03-14T04:35:18.662Z,1027.18
2016-03-14T04:36:18.619Z,1027.22
2016-03-14T04:37:18.589Z,1027.19
2016-03-14T04:38:18.545Z,1027.19
2016-03-14T04:39:18.517Z,1027.2
2016-03-14T04:40:18.473Z,1027.19
2016-03-14T04:41:18.444Z,1027.23
2016-03-14T04:42:18.400Z,1027.26
2016-03-14T04:43:18.371Z,1027.31
2016-03-14T04:44:18.328Z,1027.31
2016-03-14T04:45:18.299Z,1027.39
2016-03-14T04:46:18.271Z,1027.42
2016-03-14T04:47:18.226Z,1027.4
2016-03-14T04:48:18.182Z,1027.33
2016-03-14T04:49:18.137Z,1027.42
2016-03-14T04:50:18.109Z,1027.4
2016-03-14T04:51:18.065Z,1027.44
2016-03-14T04:52:18.037Z,1027.46
2016-03-14T04:53:17.992Z,1027.44
2016-03-14T04:54:17.963Z,1027.39
2016-03-14T04:55:17.920Z,1027.38
2016-03-14T04:56:17.890Z,1027.39
2016-03-14T04:57:17.846Z,1027.38
2016-03-14T04:58:17.818Z,1027.42
2016-03-14T04:59:17.773Z,1027.46
2016-03-14T05:00:17.729Z,1027.47
2016-03-14T05:01:17.701Z,1027.49
2016-03-14T05:02:17.657Z,1027.47
2016-03-14T05:03:17.629Z,1027.43
2016-03-14T05:04:17.584Z,1027.48
2016-03-14T05:05:17.556Z,1027.52
2016-03-14T05:06:17.511Z,1027.49
2016-03-14T05:07:17.483Z,1027.51
2016-03-14T05:08:17.455Z,1027.49
2016-03-14T05:09:17.395Z,1027.52
2016-03-14T05:10:17.366Z,1027.55
2016-03-14T05:11:17.338Z,1027.56
2016-03-14T05:12:17.293Z,1027.56
2016-03-14T05:13:17.249Z,1027.55
2016-03-14T05:14:17.221Z,1027.54
2016-03-14T05:15:17.177Z,1027.57
2016-03-14T05:16:17.147Z,1027.55
2016-03-14T05:17:17.104Z,1027.52
2016-03-14T05:18:17.074Z,1027.54
2016-03-14T05:19:17.031Z,1027.51
2016-03-14T05:20:17.002Z,1027.57
2016-03-14T05:21:16.958Z,1027.52
2016-03-14T05:22:16.913Z,1027.52
2016-03-14T05:23:16.885Z,1027.53
2016-03-14T05:24:16.840Z,1027.53
2016-03-14T05:25:16.812Z,1027.56
2016-03-14T05:26:16.768Z,1027.57
2016-03-14T05:27:16.740Z,1027.59
2016-03-14T05:28:16.695Z,1027.61
2016-03-14T05:29:16.667Z,1027.65
2016-03-14T05:30:16.638Z,1027.65
2016-03-14T05:31:16.578Z,1027.63
2016-03-14T05:32:16.550Z,1027.63
2016-03-14T05:33:16.506Z,1027.67
2016-03-14T05:34:16.477Z,1027.69
2016-03-14T05:35:16.433Z,1027.71
2016-03-14T05:36:16.405Z,1027.68
2016-03-14T05:37:16.361Z,1027.73
2016-03-14T05:38:16.332Z,1027.69
2016-03-14T05:39:16.288Z,1027.73
2016-03-14T05:40:16.244Z,1027.75
2016-03-14T05:41:16.214Z,1027.71
2016-03-14T05:42:16.171Z,1027.68
2016-03-14T05:43:16.142Z,1027.69
2016-03-14T05:44:16.098Z,1027.7
2016-03-14T05:45:16.069Z,1027.65
2016-03-14T05:46:16.025Z,1027.65
2016-03-14T05:47:15.980Z,1027.63
2016-03-14T05:48:15.952Z,1027.64
2016-03-14T05:49:15.908Z,1027.66
2016-03-14T05:50:15.879Z,1027.6
2016-03-14T05:51:15.835Z,1027.6
2016-03-14T05:52:15.791Z,1027.64
2016-03-14T05:53:15.763Z,1027.61
2016-03-14T05:54:15.718Z,1027.6
2016-03-14T05:55:15.690Z,1027.64
2016-03-14T05:56:15.646Z,1027.66
2016-03-14T05:57:15.617Z,1027.71
2016-03-14T05:58:15.573Z,1027.67
2016-03-14T05:59:15.544Z,1027.73
2016-03-14T06:00:15.500Z,1027.68
2016-03-14T06:01:15.456Z,1027.69
2016-03-14T06:02:15.428Z,1027.68
2016-03-14T06:03:15.398Z,1027.67
2016-03-14T06:04:15.355Z,1027.73
2016-03-14T06:05:15.310Z,1027.69
2016-03-14T06:06:15.287Z,1027.68
2016-03-14T06:07:15.243Z,1027.75
2016-03-14T06:08:15.199Z,1027.72
2016-03-14T06:09:15.170Z,1027.7
2016-03-14T06:10:15.125Z,1027.73
2016-03-14T06:11:15.097Z,1027.75
2016-03-14T06:12:15.052Z,1027.78
2016-03-14T06:13:15.025Z,1027.78
2016-03-14T06:14:14.980Z,1027.76
2016-03-14T06:15:14.936Z,1027.73
2016-03-14T06:16:14.907Z,1027.78
2016-03-14T06:17:14.863Z,1027.77
2016-03-14T06:18:14.834Z,1027.75
2016-03-14T06:19:14.791Z,1027.8
2016-03-14T06:20:14.762Z,1027.8
2016-03-14T06:21:14.718Z,1027.77
2016-03-14T06:22:14.673Z,1027.82
2016-03-14T06:23:14.645Z,1027.82
2016-03-14T06:24:14.617Z,1027.8
2016-03-14T06:25:14.573Z,1027.85
2016-03-14T06:26:14.528Z,1027.85
2016-03-14T06:27:14.500Z,1027.83
2016-03-14T06:28:14.455Z,1027.84
2016-03-14T06:29:14.426Z,1027.87
2016-03-14T06:30:14.383Z,1027.88
2016-03-14T06:31:14.339Z,1027.93
2016-03-14T06:32:14.310Z,1027.91
2016-03-14T06:33:14.266Z,1027.91
2016-03-14T06:34:14.237Z,1027.92
2016-03-14T06:35:14.192Z,1027.84
2016-03-14T06:36:14.164Z,1027.86
2016-03-14T06:37:14.120Z,1027.84
2016-03-14T06:38:14.092Z,1027.85
2016-03-14T06:39:14.047Z,1027.85
2016-03-14T06:40:14.019Z,1027.85
2016-03-14T06:41:13.974Z,1027.84
2016-03-14T06:42:13.947Z,1027.86
2016-03-14T06:43:13.902Z,1027.86
2016-03-14T06:44:13.874Z,1027.83
2016-03-14T06:45:13.829Z,1027.86
2016-03-14T06:46:13.785Z,1027.86
2016-03-14T06:47:13.756Z,1027.89
2016-03-14T06:48:13.712Z,1027.87
2016-03-14T06:49:13.684Z,1027.91
2016-03-14T06:50:13.640Z,1027.9
2016-03-14T06:51:13.610Z,1027.92
2016-03-14T06:52:13.582Z,1027.92
2016-03-14T06:53:13.537Z,1027.94
2016-03-14T06:54:13.493Z,1027.97
2016-03-14T06:55:13.465Z,1027.95
2016-03-14T06:56:13.421Z,1027.96
2016-03-14T06:57:13.408Z,1027.99
2016-03-14T06:58:13.348Z,1027.98
2016-03-14T06:59:13.320Z,1027.97
2016-03-14T07:00:13.276Z,1028.02
2016-03-14T07:01:13.248Z,1028.01
2016-03-14T07:02:13.203Z,1028.03
2016-03-14T07:03:13.175Z,1027.98
2016-03-14T07:04:13.130Z,1027.98
2016-03-14T07:05:13.102Z,1027.98
2016-03-14T07:06:13.058Z,1028.03
2016-03-14T07:07:13.014Z,1027.99
2016-03-14T07:08:12.986Z,1028
2016-03-14T07:09:12.956Z,1028.02
2016-03-14T07:10:12.912Z,1028.01
2016-03-14T07:11:12.883Z,1028.04
2016-03-14T07:12:12.839Z,1028
2016-03-14T07:13:12.810Z,1028.02
2016-03-14T07:14:12.767Z,1028.01
2016-03-14T07:15:12.738Z,1028
2016-03-14T07:16:12.694Z,1027.98
2016-03-14T07:17:12.665Z,1028
2016-03-14T07:18:12.622Z,1028
2016-03-14T07:19:12.593Z,1028
2016-03-14T07:20:12.549Z,1028.03
2016-03-14T07:21:12.520Z,1027.95
2016-03-14T07:22:12.476Z,1027.93
2016-03-14T07:23:12.446Z,1027.88
2016-03-14T07:24:12.404Z,1027.93
2016-03-14T07:25:12.374Z,1027.92
2016-03-14T07:26:12.330Z,1027.93
2016-03-14T07:27:12.301Z,1027.89
2016-03-14T07:28:12.273Z,1027.89
2016-03-14T07:29:12.228Z,1027.94
2016-03-14T07:30:12.184Z,1027.97
2016-03-14T07:31:12.156Z,1027.96
2016-03-14T07:32:12.112Z,1027.94
2016-03-14T07:33:12.084Z,1027.92
2016-03-14T07:34:12.055Z,1027.91
2016-03-14T07:35:12.011Z,1027.94
2016-03-14T07:36:11.998Z,1027.99
2016-03-14T07:37:11.939Z,1027.99
2016-03-14T07:38:11.909Z,1027.96
2016-03-14T07:39:11.864Z,1027.89
2016-03-14T07:40:11.836Z,1027.87
2016-03-14T07:41:11.808Z,1027.89
2016-03-14T07:42:11.764Z,1027.84
2016-03-14T07:43:11.736Z,1027.91
2016-03-14T07:44:11.691Z,1027.84
2016-03-14T07:45:11.663Z,1027.92
2016-03-14T07:46:11.618Z,1027.9
2016-03-14T07:47:11.590Z,1027.86
2016-03-14T07:48:11.561Z,1027.8
2016-03-14T07:49:11.517Z,1027.79
2016-03-14T07:50:11.488Z,1027.82
2016-03-14T07:51:11.444Z,1027.82
2016-03-14T07:52:11.416Z,1027.82
2016-03-14T07:53:11.388Z,1027.8
2016-03-14T07:54:11.343Z,1027.77
2016-03-14T07:55:11.299Z,1027.79
2016-03-14T07:56:11.270Z,1027.78
2016-03-14T07:57:11.226Z,1027.78
2016-03-14T07:58:11.197Z,1027.69
2016-03-14T07:59:11.169Z,1027.69
2016-03-14T08:00:11.125Z,1027.71
2016-03-14T08:01:11.096Z,1027.74
2016-03-14T08:02:11.051Z,1027.77
2016-03-14T08:03:11.023Z,1027.73
2016-03-14T08:04:10.995Z,1027.74
2016-03-14T08:05:10.951Z,1027.75
2016-03-14T08:06:10.919Z,1027.8
2016-03-14T08:07:10.891Z,1027.77
2016-03-14T08:08:10.846Z,1027.81
2016-03-14T08:09:10.818Z,1027.77
2016-03-14T08:10:10.774Z,1027.79
2016-03-14T08:11:10.745Z,1027.85
2016-03-14T08:12:10.716Z,1027.85
2016-03-14T08:13:10.672Z,1027.81
2016-03-14T08:14:10.643Z,1027.84
2016-03-14T08:15:10.615Z,1027.75
2016-03-14T08:16:10.571Z,1027.82
2016-03-14T08:17:10.543Z,1027.8
2016-03-14T08:18:10.498Z,1027.82
2016-03-14T08:19:10.469Z,1027.88
2016-03-14T08:20:10.425Z,1027.84
2016-03-14T08:21:10.396Z,1027.78
2016-03-14T08:22:10.368Z,1027.79
2016-03-14T08:23:10.324Z,1027.78
2016-03-14T08:24:10.295Z,1027.79
2016-03-14T08:25:10.251Z,1027.83
2016-03-14T08:26:10.238Z,1027.77
2016-03-14T08:27:11.476Z,1027.75
2016-03-14T08:28:10.993Z,1027.77
2016-03-14T08:29:10.918Z,1027.78
2016-03-14T08:30:10.123Z,1027.77
2016-03-14T08:31:10.064Z,1027.67
2016-03-14T08:32:11.473Z,1027.71
2016-03-14T08:33:11.257Z,1027.66
2016-03-14T08:34:11.306Z,1027.7
2016-03-14T08:35:11.356Z,1027.72
2016-03-14T08:36:09.875Z,1027.69
2016-03-14T08:37:11.158Z,1027.72
2016-03-14T08:38:11.099Z,1027.78
2016-03-14T08:39:11.102Z,1027.74
2016-03-14T08:40:11.089Z,1027.74
2016-03-14T08:41:10.608Z,1027.68
2016-03-14T08:42:09.672Z,1027.77
2016-03-14T08:43:09.644Z,1027.71
2016-03-14T08:44:09.600Z,1027.71
2016-03-14T08:45:09.571Z,1027.74
2016-03-14T08:46:09.542Z,1027.77
2016-03-14T08:47:09.498Z,1027.69
2016-03-14T08:48:09.469Z,1027.71
2016-03-14T08:49:09.441Z,1027.74
2016-03-14T08:50:09.413Z,1027.71
2016-03-14T08:51:09.368Z,1027.74
2016-03-14T08:52:09.340Z,1027.76
2016-03-14T08:53:09.296Z,1027.68
2016-03-14T08:54:09.267Z,1027.76
2016-03-14T08:55:09.238Z,1027.73
2016-03-14T08:56:10.444Z,1027.67
2016-03-14T08:57:09.165Z,1027.69
2016-03-14T08:58:10.528Z,1027.72
2016-03-14T08:59:10.890Z,1027.68
2016-03-14T09:00:10.330Z,1027.69
2016-03-14T09:01:10.364Z,1027.71
2016-03-14T09:02:10.398Z,1027.69
2016-03-14T09:03:10.119Z,1027.71
2016-03-14T09:04:09.981Z,1027.72
2016-03-14T09:05:10.250Z,1027.75
2016-03-14T09:06:10.221Z,1027.73
2016-03-14T09:07:10.161Z,1027.77
2016-03-14T09:08:10.133Z,1027.79
2016-03-14T09:09:09.900Z,1027.7
2016-03-14T09:10:10.028Z,1027.72
2016-03-14T09:11:08.703Z,1027.74
2016-03-14T09:12:08.658Z,1027.79
2016-03-14T09:13:08.630Z,1027.77
2016-03-14T09:14:08.586Z,1027.71
2016-03-14T09:15:08.558Z,1027.71
2016-03-14T09:16:08.529Z,1027.69
2016-03-14T09:17:08.500Z,1027.68
2016-03-14T09:18:08.456Z,1027.74
2016-03-14T09:19:08.428Z,1027.73
2016-03-14T09:20:08.399Z,1027.81
2016-03-14T09:21:08.355Z,1027.77
2016-03-14T09:22:08.326Z,1027.85
2016-03-14T09:23:08.295Z,1027.8
2016-03-14T09:24:08.266Z,1027.77
2016-03-14T09:25:08.222Z,1027.77
2016-03-14T09:26:08.194Z,1027.79
2016-03-14T09:27:08.165Z,1027.74
2016-03-14T09:28:08.137Z,1027.71
2016-03-14T09:29:08.092Z,1027.69
2016-03-14T09:30:08.064Z,1027.7
2016-03-14T09:31:08.035Z,1027.68
2016-03-14T09:32:08.006Z,1027.67
2016-03-14T09:33:07.963Z,1027.61
2016-03-14T09:34:07.934Z,1027.62
2016-03-14T09:35:07.890Z,1027.64
2016-03-14T09:36:07.861Z,1027.62
2016-03-14T09:37:07.833Z,1027.59
2016-03-14T09:38:07.804Z,1027.65
2016-03-14T09:39:07.761Z,1027.63
2016-03-14T09:40:07.731Z,1027.64
2016-03-14T09:41:07.703Z,1027.62
2016-03-14T09:42:07.659Z,1027.66
2016-03-14T09:43:07.631Z,1027.66
2016-03-14T09:44:07.602Z,1027.65
2016-03-14T09:45:07.573Z,1027.63
2016-03-14T09:46:07.530Z,1027.7
2016-03-14T09:47:07.500Z,1027.68
2016-03-14T09:48:07.472Z,1027.65
2016-03-14T09:49:07.443Z,1027.63
2016-03-14T09:50:07.399Z,1027.56
2016-03-14T09:51:07.371Z,1027.69
2016-03-14T09:52:07.357Z,1027.6
2016-03-14T09:53:07.314Z,1027.59
2016-03-14T09:54:07.269Z,1027.63
2016-03-14T09:55:07.241Z,1027.63
2016-03-14T09:56:07.212Z,1027.61
2016-03-14T09:57:07.168Z,1027.53
2016-03-14T09:58:07.139Z,1027.51
2016-03-14T09:59:07.110Z,1027.48
2016-03-14T10:00:07.082Z,1027.51
2016-03-14T10:01:07.038Z,1027.47
2016-03-14T10:02:07.010Z,1027.48
2016-03-14T10:03:06.981Z,1027.48
2016-03-14T10:04:06.953Z,1027.42
2016-03-14T10:05:06.909Z,1027.42
2016-03-14T10:06:06.879Z,1027.38
2016-03-14T10:07:06.861Z,1027.36
2016-03-14T10:08:06.816Z,1027.34
2016-03-14T10:09:06.789Z,1027.32
2016-03-14T10:10:06.760Z,1027.35
2016-03-14T10:11:06.731Z,1027.38
2016-03-14T10:12:06.686Z,1027.34
2016-03-14T10:13:06.658Z,1027.28
2016-03-14T10:14:06.630Z,1027.33
2016-03-14T10:15:06.602Z,1027.3
2016-03-14T10:16:06.557Z,1027.29
2016-03-14T10:17:06.529Z,1027.32
2016-03-14T10:18:06.499Z,1027.3
2016-03-14T10:19:06.471Z,1027.32
2016-03-14T10:20:06.427Z,1027.3
2016-03-14T10:21:06.398Z,1027.29
2016-03-14T10:22:06.371Z,1027.29
2016-03-14T10:23:06.341Z,1027.28
2016-03-14T10:24:06.313Z,1027.28
2016-03-14T10:25:06.268Z,1027.24
2016-03-14T10:26:06.240Z,1027.21
2016-03-14T10:27:06.212Z,1027.17
2016-03-14T10:28:06.183Z,1027.13
2016-03-14T10:29:06.140Z,1027.13
2016-03-14T10:30:06.110Z,1027.09
2016-03-14T10:31:06.082Z,1027.14
2016-03-14T10:32:06.053Z,1027.23
2016-03-14T10:33:06.025Z,1027.12
2016-03-14T10:34:05.981Z,1027.16
2016-03-14T10:35:05.968Z,1027.09
2016-03-14T10:36:05.923Z,1027.05
2016-03-14T10:37:05.894Z,1027.04
2016-03-14T10:38:05.866Z,1027.02
2016-03-14T10:39:05.822Z,1027.02
2016-03-14T10:40:05.794Z,1027.01
2016-03-14T10:41:05.764Z,1026.99
2016-03-14T10:42:05.736Z,1027.03
2016-03-14T10:43:05.708Z,1026.98
2016-03-14T10:44:05.664Z,1026.94
2016-03-14T10:45:05.635Z,1026.97
2016-03-14T10:46:05.607Z,1027.03
2016-03-14T10:47:05.563Z,1026.95
2016-03-14T10:48:05.549Z,1027.03
2016-03-14T10:49:05.505Z,1026.93
2016-03-14T10:50:05.477Z,1026.94
2016-03-14T10:51:05.448Z,1026.91
2016-03-14T10:52:05.419Z,1026.85
2016-03-14T10:53:05.390Z,1026.92
2016-03-14T10:54:05.346Z,1026.87
2016-03-14T10:55:05.318Z,1026.84
2016-03-14T10:56:05.289Z,1026.81
2016-03-14T10:57:05.262Z,1026.85
2016-03-14T10:58:05.232Z,1026.79
2016-03-14T10:59:05.188Z,1026.82
2016-03-14T11:00:05.159Z,1026.8
2016-03-14T11:01:05.132Z,1026.75
2016-03-14T11:02:05.104Z,1026.76
2016-03-14T11:03:05.074Z,1026.75
2016-03-14T11:04:05.031Z,1026.75
2016-03-14T11:05:05.018Z,1026.7
2016-03-14T11:06:04.974Z,1026.68
2016-03-14T11:07:04.945Z,1026.72
2016-03-14T11:08:04.917Z,1026.7
2016-03-14T11:09:04.888Z,1026.69
2016-03-14T11:10:04.859Z,1026.63
2016-03-14T11:11:04.815Z,1026.59
2016-03-14T11:12:04.786Z,1026.6
2016-03-14T11:13:04.758Z,1026.63
2016-03-14T11:14:04.729Z,1026.66
2016-03-14T11:15:04.701Z,1026.74
2016-03-14T11:16:04.673Z,1026.66
2016-03-14T11:17:04.644Z,1026.63
2016-03-14T11:18:04.600Z,1026.6
2016-03-14T11:19:04.586Z,1026.7
2016-03-14T11:20:04.558Z,1026.61
2016-03-14T11:21:04.514Z,1026.58
2016-03-14T11:22:04.489Z,1026.52
2016-03-14T11:23:04.460Z,1026.55
2016-03-14T11:24:04.430Z,1026.47
2016-03-14T11:25:04.386Z,1026.48
2016-03-14T11:26:04.358Z,1026.52
2016-03-14T11:27:04.330Z,1026.56
2016-03-14T11:28:04.301Z,1026.54
2016-03-14T11:29:04.272Z,1026.44
2016-03-14T11:30:04.244Z,1026.48
2016-03-14T11:31:04.215Z,1026.48
2016-03-14T11:32:04.172Z,1026.45
2016-03-14T11:33:04.143Z,1026.45
2016-03-14T11:34:04.115Z,1026.4
2016-03-14T11:35:04.086Z,1026.39
2016-03-14T11:36:04.057Z,1026.44
2016-03-14T11:37:04.029Z,1026.4
2016-03-14T11:38:04.000Z,1026.37
2016-03-14T11:39:03.971Z,1026.38
2016-03-14T11:40:03.943Z,1026.31
2016-03-14T11:41:03.898Z,1026.26
2016-03-14T11:42:03.871Z,1026.2
2016-03-14T11:43:03.842Z,1026.23
2016-03-14T11:44:03.812Z,1026.24
2016-03-14T11:45:03.784Z,1026.27
2016-03-14T11:46:03.756Z,1026.26
2016-03-14T11:47:03.728Z,1026.21
2016-03-14T11:48:03.698Z,1026.18
2016-03-14T11:49:03.670Z,1026.17
2016-03-14T11:50:03.626Z,1026.24
2016-03-14T11:51:03.598Z,1026.27
2016-03-14T11:52:03.569Z,1026.25
2016-03-14T11:53:03.541Z,1026.24
2016-03-14T11:54:03.511Z,1026.2
2016-03-14T11:55:03.476Z,1026.18
2016-03-14T11:56:03.439Z,1026.17
2016-03-14T11:57:03.400Z,1026.21
2016-03-14T11:58:03.361Z,1026.17
2016-03-14T11:59:03.313Z,1026.13
2016-03-14T12:00:03.279Z,1026.14
2016-03-14T12:01:03.247Z,1026.13
2016-03-14T12:02:03.215Z,1026.14
2016-03-14T12:03:03.182Z,1026.17
2016-03-14T12:04:03.150Z,1026.11
2016-03-14T12:05:03.104Z,1026.12
2016-03-14T12:06:03.090Z,1026.11
2016-03-14T12:07:03.060Z,1026.12
2016-03-14T12:08:03.015Z,1026.11